Aérodrome :
LOGIN :

S'inscrire | Disclaimer

   EN    FR    IT 

 










Légende :    VFR   VFR Marginal   IFR   IFR Intensif   IFR Très Intensif
Visi : 
Plafond : 
>= 8 km
>= 3000ft
5 à 8 km
1000 à 3000 ft
1500m à 5 km
500 à 1000 ft
800 à 1500m
200 à 500 ft
< 800m
< 200 ft
Symboles :   Orages  Brouillard  Fortes neiges  Fortes précipitations  Vent > 20 kt
SIGMETs :   Divers  Orages  Givrage  Turbulence  Onde Orograph.  Cendres Volcan.






- Altitude de l'aérodrome : 517 ft
- Code IATA : GML


UKKM - Antonov

DERNIER METAR :
  • 200330Z AUTO 18002MPS 9000 // NSC ///// Q////

METARs EXPIRÉS :
  • 200300Z AUTO 17002MPS 9000 // NSC ///// Q////
  • 200230Z AUTO 17002MPS 8000 // NSC ///// Q////
  • 200200Z AUTO 19002MPS 8000 // NSC ///// Q////
  • 200130Z AUTO 20002MPS 9000 // NSC ///// Q////
  • 200100Z AUTO 20002MPS 8000 // NSC ///// Q////

TAF TAF UKKM
Valide du 19 à 12h jusqu'au 20 à 12h UTC


191104Z 1912/2012 26006MPS 9999 BKN020 TX08/1912Z TN00/2005Z
TEMPO 1912/1915 24003G08MPS
BECMG 1915/1917 21005MPS
TEMPO 1918/2006 2100 BR BKN007
PROB40
TEMPO 1918/2006 0400 FG BKN001



MET'MAP, la Météo Aéronautique d'un coup d'oeil ! - Copyright ORBIFLY Décembre 2007 - Disclaimer

ORBIFLY MET'MAP TEAM :

Programmation & Développement : Alexandra Zaïnal
Sur une idée originale de : Baudouin d'Aumeries
Assistance à la programmation : Marc-Olivier Méhu
Soutien technique & logistique : Manuel Goepfert

Contact : metmap@orbifly.com




SOURCES & CREDITS :

   NOAA